Time;durP1;ratioP1;P1;durP2;ratioP2;P2;SDS_P1;SDS_P2;PMS_P1;PMS_P2;Temp;Humidity;BMP_temperature;BMP_pressure;BME280_temperature;BME280_humidity;BME280_pressure;Samples;Min_cycle;Max_cycle;Signal;HPM_P1;HPM_P2
2022/03/22 00:00:34;;;;;;;7.88;7.10;;;20.00;42.70;;;;;;4996081;28;20208;-69
2022/03/22 00:03:00;;;;;;;7.43;6.72;;;20.00;42.70;;;;;;4996051;28;20194;-70
2022/03/22 00:05:26;;;;;;;7.90;7.20;;;19.90;42.50;;;;;;5013503;28;20192;-70
2022/03/22 00:07:53;;;;;;;7.47;6.78;;;20.00;42.60;;;;;;4995899;28;20226;-70
2022/03/22 00:10:19;;;;;;;7.60;6.50;;;19.90;42.60;;;;;;4995963;28;20200;-70
2022/03/22 00:12:45;;;;;;;6.68;6.03;;;20.00;42.70;;;;;;4995793;28;20238;-70
2022/03/22 00:15:12;;;;;;;6.70;6.10;;;20.00;42.80;;;;;;4995705;28;20668;-70
2022/03/22 00:17:38;;;;;;;7.10;6.25;;;20.00;42.80;;;;;;4995546;28;20183;-70
2022/03/22 00:20:09;;;;;;;7.03;6.32;;;20.00;42.90;;;;;;4979703;28;20235;-70
2022/03/22 00:22:35;;;;;;;6.95;6.35;;;20.00;42.90;;;;;;4995605;28;20698;-70
2022/03/22 00:25:01;;;;;;;6.57;5.97;;;20.00;42.90;;;;;;4995951;28;20185;-70
2022/03/22 00:27:26;;;;;;;6.25;5.65;;;20.00;42.90;;;;;;4995660;28;20314;-70
2022/03/22 00:29:53;;;;;;;7.35;6.30;;;20.00;42.90;;;;;;4979773;28;20203;-70
2022/03/22 00:32:19;;;;;;;6.05;5.53;;;19.90;42.80;;;;;;4979212;28;20657;-70
2022/03/22 00:34:45;;;;;;;6.38;5.78;;;19.90;42.80;;;;;;4979258;28;20184;-70
2022/03/22 00:37:15;;;;;;;6.80;6.20;;;20.00;42.90;;;;;;4979174;28;20184;-70
2022/03/22 00:39:42;;;;;;;7.55;6.78;;;19.90;42.80;;;;;;5012881;28;20243;-70
2022/03/22 00:42:09;;;;;;;7.10;6.40;;;19.90;42.80;;;;;;4979329;28;20270;-70
2022/03/22 00:44:36;;;;;;;7.07;6.43;;;19.90;42.70;;;;;;4995304;28;20184;-70
2022/03/22 00:47:02;;;;;;;7.93;7.22;;;19.90;42.80;;;;;;5012591;28;20214;-70
2022/03/22 00:49:28;;;;;;;7.97;7.07;;;19.90;42.70;;;;;;4995068;28;20207;-70
2022/03/22 00:51:54;;;;;;;8.05;7.35;;;19.90;42.50;;;;;;4979159;28;20648;-70
2022/03/22 00:54:20;;;;;;;7.15;6.45;;;19.90;42.60;;;;;;4979189;28;20187;-70
2022/03/22 00:56:45;;;;;;;8.00;6.80;;;19.90;42.60;;;;;;4995379;28;20191;-70
2022/03/22 01:01:55;;;;;;;5.95;5.45;;;19.90;42.60;;;;;;4994946;28;20215;-70
2022/03/22 01:04:24;;;;;;;6.50;5.90;;;19.90;42.60;;;;;;4978853;28;20184;-70
2022/03/22 01:06:50;;;;;;;5.90;5.40;;;19.90;42.80;;;;;;4978974;28;20262;-70
2022/03/22 01:09:16;;;;;;;7.38;6.10;;;19.90;42.80;;;;;;4994997;28;20207;-70
2022/03/22 01:11:42;;;;;;;6.07;5.57;;;19.90;42.80;;;;;;4995077;28;20192;-70
2022/03/22 01:14:08;;;;;;;6.60;6.00;;;19.90;42.80;;;;;;4995332;28;20168;-70
2022/03/22 01:16:34;;;;;;;6.30;5.70;;;19.90;42.80;;;;;;4995251;28;20255;-70
2022/03/22 01:19:00;;;;;;;6.40;5.80;;;19.90;42.80;;;;;;4994776;28;20319;-70
2022/03/22 01:21:26;;;;;;;6.38;5.78;;;19.90;42.80;;;;;;4994786;28;20673;-70
2022/03/22 01:23:52;;;;;;;6.60;6.00;;;19.90;42.80;;;;;;4978940;28;20191;-70
2022/03/22 01:26:19;;;;;;;6.82;6.22;;;19.90;42.80;;;;;;4979100;28;20203;-70
2022/03/22 01:28:46;;;;;;;7.03;6.43;;;19.90;42.80;;;;;;5012335;28;20216;-70
2022/03/22 01:31:12;;;;;;;6.53;5.93;;;19.90;42.80;;;;;;4998383;28;20216;-70
2022/03/22 01:33:40;;;;;;;7.97;7.13;;;19.90;42.80;;;;;;4983124;28;20191;-70
2022/03/22 01:36:06;;;;;;;7.65;6.95;;;19.90;42.70;;;;;;4999168;28;20184;-70
2022/03/22 01:38:32;;;;;;;7.47;6.78;;;19.90;42.70;;;;;;4998936;28;20558;-70
2022/03/22 01:40:58;;;;;;;7.13;6.43;;;19.90;42.60;;;;;;4998355;28;20235;-70
2022/03/22 01:43:24;;;;;;;7.78;7.03;;;19.90;42.60;;;;;;4998440;28;20657;-70
2022/03/22 01:45:49;;;;;;;7.00;6.35;;;19.90;42.70;;;;;;4998684;28;20195;-70
2022/03/22 01:48:15;;;;;;;7.07;6.38;;;19.90;42.60;;;;;;4982567;28;20208;-70
2022/03/22 01:50:42;;;;;;;6.65;6.05;;;19.80;42.50;;;;;;4998688;28;20239;-70
2022/03/22 01:53:10;;;;;;;6.78;6.18;;;19.90;42.50;;;;;;5014765;28;20334;-70
2022/03/22 01:55:37;;;;;;;6.43;5.82;;;19.90;42.60;;;;;;4982529;28;20207;-70
2022/03/22 01:58:03;;;;;;;6.05;5.55;;;19.80;42.60;;;;;;4998699;28;20307;-70
2022/03/22 02:00:29;;;;;;;6.15;5.60;;;19.90;42.80;;;;;;4998631;28;20588;-70
2022/03/22 02:05:52;;;;;;;6.35;5.68;;;19.90;42.80;;;;;;5015770;28;20171;-70
2022/03/22 02:08:20;;;;;;;6.65;6.05;;;19.90;42.80;;;;;;4998022;28;20219;-70
2022/03/22 02:10:47;;;;;;;6.82;6.22;;;19.80;42.70;;;;;;4998127;28;20204;-70
2022/03/22 02:13:13;;;;;;;6.85;5.95;;;19.80;42.60;;;;;;4997982;28;20650;-70
2022/03/22 02:15:39;;;;;;;7.43;6.72;;;19.80;42.60;;;;;;4998055;28;20184;-70
2022/03/22 02:18:05;;;;;;;7.13;6.43;;;19.80;42.60;;;;;;4981969;28;20184;-70
2022/03/22 02:20:32;;;;;;;6.60;6.00;;;19.90;42.60;;;;;;4998083;28;20208;-70
2022/03/22 02:23:53;;;;;;;7.20;6.53;;;19.90;42.60;;;;;;4997739;28;20227;-70
2022/03/22 02:26:21;;;;;;;6.88;6.28;;;19.80;42.50;;;;;;4997884;28;20192;-70
2022/03/22 02:28:53;;;;;;;6.10;5.60;;;19.80;42.70;;;;;;4997956;28;20216;-70
2022/03/22 02:31:24;;;;;;;6.35;5.75;;;19.90;42.80;;;;;;4997888;28;20723;-70
2022/03/22 02:33:51;;;;;;;6.38;5.78;;;19.90;42.80;;;;;;4981908;28;20188;-70
2022/03/22 02:36:17;;;;;;;6.10;5.55;;;19.80;42.70;;;;;;4997684;28;20173;-70
2022/03/22 02:38:43;;;;;;;6.22;5.63;;;19.80;42.70;;;;;;4997679;28;20203;-70
2022/03/22 02:41:17;;;;;;;6.32;5.82;;;19.80;42.70;;;;;;4996172;28;20693;-70
2022/03/22 02:43:45;;;;;;;6.63;6.03;;;19.80;42.60;;;;;;4997507;28;20266;-70
2022/03/22 02:46:10;;;;;;;7.20;6.55;;;19.80;42.50;;;;;;4981319;28;20211;-70
2022/03/22 02:48:36;;;;;;;6.75;6.15;;;19.80;42.60;;;;;;4997630;28;20592;-70
2022/03/22 02:51:04;;;;;;;7.10;6.45;;;19.80;42.50;;;;;;4997478;28;20223;-71
2022/03/22 02:53:29;;;;;;;6.75;6.07;;;19.80;42.40;;;;;;4997356;28;20183;-70
2022/03/22 02:55:55;;;;;;;6.70;6.10;;;19.80;42.40;;;;;;4996552;28;20192;-70
2022/03/22 02:58:21;;;;;;;6.68;6.07;;;19.80;42.40;;;;;;4997435;28;20245;-70
2022/03/22 03:00:47;;;;;;;6.43;5.88;;;19.80;43.00;;;;;;4980874;28;20266;-70
2022/03/22 03:03:13;;;;;;;6.22;5.70;;;19.80;42.60;;;;;;5013793;28;20178;-73
2022/03/22 03:05:39;;;;;;;6.03;5.45;;;19.80;42.50;;;;;;5000046;28;20195;-70
2022/03/22 03:08:06;;;;;;;6.30;5.70;;;19.80;42.60;;;;;;4997206;28;20208;-70
2022/03/22 03:10:32;;;;;;;6.07;5.47;;;19.80;42.70;;;;;;4997080;28;20204;-69
2022/03/22 03:13:04;;;;;;;6.05;5.53;;;19.80;42.60;;;;;;4980626;28;20246;-70
2022/03/22 03:15:31;;;;;;;6.20;5.70;;;19.80;42.70;;;;;;4997119;28;20173;-69
2022/03/22 03:17:58;;;;;;;5.97;5.43;;;19.80;42.70;;;;;;4996879;28;20188;-70
2022/03/22 03:20:24;;;;;;;6.68;6.07;;;19.70;42.60;;;;;;4996800;28;20211;-70
2022/03/22 03:22:49;;;;;;;5.78;5.30;;;19.80;42.70;;;;;;4996924;28;20184;-70
2022/03/22 03:25:15;;;;;;;6.25;5.65;;;19.80;42.70;;;;;;4996834;28;20195;-70
2022/03/22 03:27:41;;;;;;;6.82;5.38;;;19.80;42.70;;;;;;4996644;28;20254;-70
2022/03/22 03:30:08;;;;;;;6.72;6.13;;;19.80;42.60;;;;;;5014130;28;20685;-70
2022/03/22 03:32:34;;;;;;;6.75;6.10;;;19.80;42.60;;;;;;4996582;28;20234;-70
2022/03/22 03:35:01;;;;;;;7.82;7.05;;;19.80;42.60;;;;;;4996736;28;20168;-70
2022/03/22 03:37:36;;;;;;;7.50;6.80;;;19.80;43.20;;;;;;4980716;28;20186;-70
2022/03/22 03:40:05;;;;;;;6.90;6.30;;;19.80;42.50;;;;;;4996784;28;20195;-70
2022/03/22 03:42:32;;;;;;;6.93;6.32;;;19.70;42.40;;;;;;4996270;28;20188;-70
2022/03/22 03:47:42;;;;;;;6.00;5.50;;;19.70;42.40;;;;;;5013722;28;20677;-70
2022/03/22 03:50:09;;;;;;;6.30;5.72;;;19.70;42.60;;;;;;4996194;28;20232;-70
2022/03/22 03:52:37;;;;;;;6.05;5.53;;;19.70;42.50;;;;;;4995676;28;20198;-70
2022/03/22 03:55:06;;;;;;;6.07;5.57;;;19.70;42.60;;;;;;4996035;28;20184;-70
2022/03/22 03:57:34;;;;;;;5.97;5.47;;;19.70;42.60;;;;;;4995812;28;20207;-70
2022/03/22 04:00:00;;;;;;;6.20;5.65;;;19.70;42.60;;;;;;4995985;28;20218;-69
2022/03/22 04:02:26;;;;;;;6.03;5.50;;;19.70;42.60;;;;;;4996048;28;20219;-70
2022/03/22 04:04:52;;;;;;;5.88;5.28;;;19.70;42.60;;;;;;4996071;28;20192;-69
2022/03/22 04:07:22;;;;;;;6.10;5.50;;;19.70;42.60;;;;;;5013771;28;20222;-70
2022/03/22 04:09:48;;;;;;;5.90;5.40;;;19.70;42.60;;;;;;4979634;28;20262;-70
2022/03/22 04:12:14;;;;;;;7.18;6.57;;;19.70;42.50;;;;;;4995971;28;20560;-70
2022/03/22 04:14:40;;;;;;;7.00;6.40;;;19.70;42.50;;;;;;4995823;28;20191;-70
2022/03/22 04:17:10;;;;;;;6.80;6.20;;;19.70;42.60;;;;;;4996023;28;20199;-70
2022/03/22 04:19:36;;;;;;;7.55;6.80;;;19.70;42.40;;;;;;4979529;28;20288;-70
2022/03/22 04:22:04;;;;;;;7.30;6.60;;;19.70;42.40;;;;;;5013145;28;20275;-70
2022/03/22 04:24:30;;;;;;;7.68;6.97;;;19.70;42.40;;;;;;4996091;28;20173;-69
2022/03/22 04:32:41;;;;;;;7.85;6.40;;;19.70;42.40;;;;;;4979637;28;20223;-69
2022/03/22 04:32:42;;;;;;;6.25;5.75;;;19.70;42.50;;;;;;5012944;28;20196;-69
2022/03/22 04:35:11;;;;;;;5.75;5.32;;;19.70;42.60;;;;;;4995714;28;20188;-70
2022/03/22 04:37:37;;;;;;;6.30;5.70;;;19.70;42.50;;;;;;5013043;28;20184;-70
2022/03/22 04:40:04;;;;;;;6.28;5.78;;;19.70;42.50;;;;;;4995437;28;20207;-70
2022/03/22 04:42:31;;;;;;;6.75;6.15;;;19.70;42.50;;;;;;4979484;28;20281;-70
2022/03/22 04:44:57;;;;;;;6.55;5.95;;;19.70;42.50;;;;;;4979129;28;20199;-70
2022/03/22 04:47:24;;;;;;;6.70;6.10;;;19.70;42.50;;;;;;4995178;28;20215;-70
2022/03/22 04:49:49;;;;;;;7.45;6.75;;;19.70;42.50;;;;;;4995236;28;20302;-70
2022/03/22 04:57:43;;;;;;;5.97;5.47;;;19.70;42.20;;;;;;4995459;28;20246;-69
2022/03/22 05:00:09;;;;;;;5.13;4.72;;;19.70;42.50;;;;;;4978993;28;20208;-70
2022/03/22 05:02:35;;;;;;;6.22;5.72;;;19.70;42.50;;;;;;4995256;28;20567;-70
2022/03/22 05:05:01;;;;;;;5.88;5.28;;;19.70;42.50;;;;;;4994640;28;20215;-70
2022/03/22 05:07:27;;;;;;;6.10;5.60;;;19.70;42.50;;;;;;4979126;28;20215;-70
2022/03/22 05:09:53;;;;;;;5.63;5.10;;;19.70;42.50;;;;;;4995087;28;20263;-70
2022/03/22 05:12:19;;;;;;;6.15;5.65;;;19.70;42.50;;;;;;4995010;28;20756;-70
2022/03/22 05:14:50;;;;;;;6.43;5.82;;;19.70;42.50;;;;;;4995217;28;20215;-70
2022/03/22 05:17:23;;;;;;;6.57;5.97;;;19.70;42.50;;;;;;4979082;28;20279;-70
2022/03/22 05:19:50;;;;;;;5.97;5.47;;;19.70;42.40;;;;;;4979002;28;20221;-69
2022/03/22 05:22:17;;;;;;;6.40;5.80;;;19.70;42.50;;;;;;4978928;28;20191;-69
2022/03/22 05:24:45;;;;;;;6.30;5.70;;;19.70;42.40;;;;;;4978794;28;20223;-70
2022/03/22 05:27:13;;;;;;;6.90;6.30;;;19.70;42.40;;;;;;4994813;28;20212;-68
2022/03/22 05:29:38;;;;;;;6.30;5.80;;;19.70;42.40;;;;;;4978896;28;20219;-69
2022/03/22 05:32:05;;;;;;;6.80;6.07;;;19.70;42.30;;;;;;4978719;28;20180;-70
2022/03/22 05:34:31;;;;;;;6.80;6.10;;;19.70;42.30;;;;;;4995368;28;20176;-70
2022/03/22 05:36:57;;;;;;;6.47;5.93;;;19.70;42.30;;;;;;4994969;28;20249;-70
2022/03/22 05:39:23;;;;;;;6.93;6.32;;;19.70;42.30;;;;;;4994931;28;20207;-69
2022/03/22 05:41:49;;;;;;;6.53;5.93;;;19.60;42.20;;;;;;4978769;28;20234;-70
2022/03/22 05:44:14;;;;;;;7.38;6.68;;;19.70;42.40;;;;;;4994759;28;20192;-70
2022/03/22 05:46:41;;;;;;;5.90;5.40;;;19.70;42.40;;;;;;4994715;28;20176;-70
2022/03/22 05:49:08;;;;;;;6.72;6.13;;;19.60;42.30;;;;;;4978416;28;20180;-70
2022/03/22 05:51:37;;;;;;;6.18;5.57;;;19.70;42.30;;;;;;4994518;28;20263;-70
2022/03/22 05:54:03;;;;;;;6.20;5.60;;;19.70;42.40;;;;;;4994735;28;20291;-69
2022/03/22 05:56:29;;;;;;;5.78;5.28;;;19.70;42.40;;;;;;4978508;28;20275;-70
2022/03/22 05:58:59;;;;;;;5.90;5.40;;;19.70;42.40;;;;;;4994467;28;20204;-70
2022/03/22 06:01:27;;;;;;;6.10;5.60;;;19.70;42.40;;;;;;4978551;28;20180;-69
2022/03/22 06:03:53;;;;;;;6.22;5.72;;;19.70;42.40;;;;;;4978760;28;20183;-70
2022/03/22 06:06:19;;;;;;;5.63;5.22;;;19.70;42.90;;;;;;5019228;23;20323;-65
2022/03/22 06:08:45;;;;;;;6.32;5.72;;;19.70;42.40;;;;;;4991169;28;20205;-66
2022/03/22 06:11:11;;;;;;;5.88;5.35;;;19.70;42.30;;;;;;4975274;28;20181;-64
2022/03/22 06:13:37;;;;;;;6.03;5.53;;;19.70;42.40;;;;;;4974903;28;20196;-66
2022/03/22 06:16:05;;;;;;;6.85;6.18;;;19.70;42.40;;;;;;4976601;28;20200;-66
2022/03/22 06:18:30;;;;;;;7.10;6.40;;;19.70;42.40;;;;;;4958465;28;20195;-65
2022/03/22 06:20:56;;;;;;;7.03;6.32;;;19.70;42.30;;;;;;4968252;28;20188;-65
2022/03/22 06:23:23;;;;;;;7.10;6.50;;;19.70;42.20;;;;;;4962150;28;20620;-66
2022/03/22 06:25:49;;;;;;;7.38;6.68;;;19.70;42.20;;;;;;4980781;28;20231;-66
2022/03/22 06:28:18;;;;;;;7.20;6.50;;;19.70;42.20;;;;;;4981592;28;20259;-66
2022/03/22 06:30:44;;;;;;;7.90;7.10;;;19.70;42.30;;;;;;4997986;28;20184;-66
2022/03/22 06:33:19;;;;;;;7.40;6.70;;;19.70;42.20;;;;;;4963354;28;20240;-65
2022/03/22 06:35:46;;;;;;;6.40;5.80;;;19.70;42.90;;;;;;4993444;28;20235;-66
2022/03/22 06:38:12;;;;;;;6.00;5.40;;;19.70;42.20;;;;;;4962403;28;20184;-66
2022/03/22 06:40:39;;;;;;;6.50;5.90;;;19.70;42.30;;;;;;4962104;28;20213;-65
2022/03/22 06:43:09;;;;;;;6.63;6.03;;;19.70;42.30;;;;;;4978393;28;20288;-64
2022/03/22 06:45:36;;;;;;;6.65;6.05;;;19.70;42.20;;;;;;4978052;28;20240;-66
2022/03/22 06:48:02;;;;;;;6.22;5.72;;;19.70;42.20;;;;;;4995372;28;20700;-66
2022/03/22 06:50:27;;;;;;;6.18;5.68;;;19.80;42.20;;;;;;4962271;28;20212;-65
2022/03/22 06:52:53;;;;;;;6.28;5.70;;;19.80;42.20;;;;;;4993316;28;20687;-66
2022/03/22 06:55:23;;;;;;;6.50;5.90;;;19.80;42.20;;;;;;4958421;28;20280;-66
2022/03/22 06:57:53;;;;;;;5.82;5.32;;;19.80;42.10;;;;;;4958546;28;20555;-66
2022/03/22 07:00:20;;;;;;;6.93;6.22;;;19.90;42.10;;;;;;4960149;28;20185;-64
2022/03/22 07:02:48;;;;;;;6.90;6.30;;;19.90;42.00;;;;;;4973933;28;20189;-65
2022/03/22 07:05:15;;;;;;;7.93;7.20;;;20.00;42.10;;;;;;4993729;28;20617;-66
2022/03/22 07:07:42;;;;;;;6.72;6.15;;;20.00;42.00;;;;;;4994142;28;20209;-66
2022/03/22 07:10:17;;;;;;;7.43;6.72;;;20.00;42.10;;;;;;4994158;28;20176;-66
2022/03/22 07:12:53;;;;;;;7.95;7.18;;;20.00;42.10;;;;;;4982202;28;20608;-65
2022/03/22 07:15:28;;;;;;;7.38;6.68;;;20.00;42.00;;;;;;4995256;28;20173;-66
2022/03/22 07:17:54;;;;;;;7.88;7.07;;;20.00;42.00;;;;;;4995222;28;20172;-65
2022/03/22 07:20:21;;;;;;;6.95;6.35;;;20.00;42.00;;;;;;4961454;28;20231;-66
2022/03/22 07:22:50;;;;;;;6.95;6.35;;;20.10;42.10;;;;;;4973651;28;20330;-66
2022/03/22 07:25:17;;;;;;;7.97;7.28;;;20.10;42.10;;;;;;4993606;28;20177;-66
2022/03/22 07:27:44;;;;;;;6.90;6.32;;;20.10;42.00;;;;;;4993257;28;20220;-67
2022/03/22 07:30:11;;;;;;;7.25;6.65;;;20.10;42.00;;;;;;4977276;28;20177;-67
2022/03/22 07:32:40;;;;;;;7.70;6.40;;;20.10;42.00;;;;;;4982126;28;20192;-66
2022/03/22 07:35:08;;;;;;;7.63;6.93;;;20.20;42.10;;;;;;4977238;28;20177;-66
2022/03/22 07:37:35;;;;;;;6.78;6.18;;;20.20;42.10;;;;;;4977283;28;20209;-66
2022/03/22 07:40:05;;;;;;;7.18;6.47;;;20.20;42.00;;;;;;4977330;28;20192;-66
2022/03/22 07:42:31;;;;;;;7.40;6.68;;;20.20;42.00;;;;;;4970783;28;20255;-66
2022/03/22 07:45:01;;;;;;;6.25;5.65;;;20.20;42.00;;;;;;4994447;28;20236;-66
2022/03/22 07:47:28;;;;;;;6.47;5.88;;;20.30;42.10;;;;;;4976865;28;20227;-65
2022/03/22 07:53:00;;;;;;;6.80;6.20;;;20.30;42.10;;;;;;4993013;28;20189;-66
2022/03/22 07:55:28;;;;;;;6.78;6.18;;;20.30;41.80;;;;;;4992175;28;20173;-66
2022/03/22 07:57:55;;;;;;;7.13;6.53;;;20.30;42.00;;;;;;4960660;28;20188;-66
2022/03/22 08:00:20;;;;;;;6.97;6.22;;;20.30;41.90;;;;;;4960665;28;20209;-64
2022/03/22 08:02:55;;;;;;;7.35;6.65;;;20.30;41.90;;;;;;4975958;28;20706;-65
2022/03/22 08:05:23;;;;;;;6.45;5.65;;;20.30;41.90;;;;;;4957212;28;20173;-66
2022/03/22 08:07:49;;;;;;;7.43;6.72;;;20.40;42.00;;;;;;4957707;28;20201;-66
2022/03/22 08:10:15;;;;;;;7.00;6.30;;;20.40;41.90;;;;;;4973637;28;20189;-66
2022/03/22 08:12:42;;;;;;;7.57;6.80;;;20.40;41.90;;;;;;4987832;28;20736;-66
2022/03/22 08:15:09;;;;;;;7.03;6.15;;;20.40;42.00;;;;;;4976784;28;20268;-66
2022/03/22 08:17:42;;;;;;;6.90;6.20;;;20.40;42.00;;;;;;4993822;28;20195;-66
2022/03/22 08:20:10;;;;;;;6.93;6.32;;;20.40;42.00;;;;;;4993911;28;20244;-66
2022/03/22 08:23:04;;;;;;;6.55;5.95;;;20.40;42.10;;;;;;4993435;28;20216;-66
2022/03/22 08:25:37;;;;;;;6.97;6.38;;;20.40;42.10;;;;;;4976444;28;20209;-66
2022/03/22 08:28:09;;;;;;;6.68;6.07;;;20.40;42.20;;;;;;4976204;28;20204;-66
2022/03/22 08:30:38;;;;;;;6.70;6.10;;;20.40;42.20;;;;;;4960484;28;20189;-66
2022/03/22 08:33:07;;;;;;;6.90;6.10;;;20.40;42.20;;;;;;4990598;28;20185;-65
2022/03/22 08:35:34;;;;;;;6.90;6.20;;;20.40;42.20;;;;;;4987207;28;20616;-66
2022/03/22 08:38:00;;;;;;;7.43;6.72;;;20.40;42.30;;;;;;4975337;28;20200;-66
2022/03/22 08:40:26;;;;;;;7.43;6.72;;;20.50;42.30;;;;;;4975392;28;20189;-66
2022/03/22 08:42:53;;;;;;;6.43;5.82;;;20.50;42.30;;;;;;4975885;28;20188;-66
2022/03/22 08:45:25;;;;;;;6.00;5.50;;;20.50;42.30;;;;;;4975757;28;20189;-66
2022/03/22 08:47:53;;;;;;;6.97;5.93;;;20.50;42.30;;;;;;4959808;28;20236;-66
2022/03/22 08:50:23;;;;;;;6.75;6.15;;;20.50;42.30;;;;;;4959897;28;20235;-66
2022/03/22 08:52:50;;;;;;;6.60;6.00;;;20.50;42.30;;;;;;4993201;28;20293;-66
2022/03/22 08:55:18;;;;;;;6.63;6.03;;;20.50;42.30;;;;;;4992069;28;20188;-66
2022/03/22 08:57:48;;;;;;;6.07;5.50;;;20.50;42.30;;;;;;4992038;28;20199;-66
2022/03/22 09:00:17;;;;;;;7.18;5.82;;;20.50;42.30;;;;;;4992208;28;20199;-66
2022/03/22 09:02:45;;;;;;;7.32;6.63;;;20.50;42.30;;;;;;4979746;28;20185;-66
2022/03/22 09:08:13;;;;;;;7.05;6.35;;;20.50;42.30;;;;;;4898294;29;20219;-66
2022/03/22 09:10:40;;;;;;;6.53;5.95;;;20.50;42.40;;;;;;4963865;28;20650;-66
2022/03/22 09:13:07;;;;;;;6.47;5.88;;;20.50;42.30;;;;;;4975298;28;20199;-66
2022/03/22 09:15:37;;;;;;;6.78;6.28;;;20.50;42.30;;;;;;4976057;28;20196;-66
2022/03/22 09:18:05;;;;;;;6.65;5.85;;;20.50;42.40;;;;;;4992938;28;20215;-66
2022/03/22 09:20:32;;;;;;;6.25;5.65;;;20.50;42.40;;;;;;4975712;28;20189;-66
2022/03/22 09:23:00;;;;;;;7.82;5.95;;;20.50;42.40;;;;;;5005543;28;20211;-66
2022/03/22 09:25:29;;;;;;;6.18;5.68;;;20.50;42.30;;;;;;4992998;28;20192;-66
2022/03/22 09:27:56;;;;;;;7.45;5.88;;;20.50;42.30;;;;;;4991848;28;20274;-66
2022/03/22 09:30:22;;;;;;;5.85;5.35;;;20.50;42.40;;;;;;4992075;28;20219;-66
2022/03/22 09:32:48;;;;;;;6.40;5.88;;;20.50;42.30;;;;;;4979183;28;20196;-66
2022/03/22 09:35:19;;;;;;;6.57;5.97;;;20.50;42.30;;;;;;4959263;28;20180;-66
2022/03/22 09:37:48;;;;;;;6.15;5.65;;;20.50;42.40;;;;;;4993015;28;20196;-65
2022/03/22 09:40:18;;;;;;;6.47;5.88;;;20.50;42.40;;;;;;4975891;28;20177;-66
2022/03/22 09:42:45;;;;;;;6.50;5.90;;;20.50;42.40;;;;;;4987339;28;20192;-66
2022/03/22 09:45:24;;;;;;;6.70;6.10;;;20.50;42.40;;;;;;4991462;28;20189;-66
2022/03/22 09:47:50;;;;;;;6.38;5.78;;;20.50;42.40;;;;;;4991645;28;20341;-66
2022/03/22 09:50:19;;;;;;;7.05;6.45;;;20.50;42.40;;;;;;4992371;28;20192;-66
2022/03/22 09:52:46;;;;;;;6.70;6.10;;;20.50;42.40;;;;;;4995248;28;20173;-66
2022/03/22 09:55:16;;;;;;;6.10;5.50;;;20.50;42.40;;;;;;4995288;28;20181;-66
2022/03/22 09:57:43;;;;;;;6.07;5.47;;;20.50;42.30;;;;;;4995662;28;20173;-66
2022/03/22 10:00:14;;;;;;;6.97;6.15;;;20.50;42.40;;;;;;4996585;28;20328;-66
2022/03/22 10:02:40;;;;;;;6.85;6.25;;;20.50;42.50;;;;;;4983867;28;20239;-66
2022/03/22 10:05:06;;;;;;;6.20;5.60;;;20.50;42.50;;;;;;4963045;28;20235;-66
2022/03/22 10:07:32;;;;;;;5.50;5.00;;;20.50;42.40;;;;;;4978561;28;20232;-66
2022/03/22 10:10:03;;;;;;;6.95;6.25;;;20.50;42.50;;;;;;4962784;28;20189;-66
2022/03/22 10:12:37;;;;;;;6.13;5.53;;;20.50;42.40;;;;;;4988457;28;20284;-66
2022/03/22 10:15:15;;;;;;;6.68;6.13;;;20.50;42.50;;;;;;4995324;28;20184;-66
2022/03/22 10:17:43;;;;;;;6.65;5.95;;;20.50;42.60;;;;;;4994867;28;20228;-65
2022/03/22 10:20:21;;;;;;;6.82;6.22;;;20.50;42.60;;;;;;4994885;28;20177;-66
2022/03/22 10:22:58;;;;;;;6.95;5.97;;;20.50;42.50;;;;;;4995828;28;20267;-66
2022/03/22 10:25:25;;;;;;;6.72;6.13;;;20.50;42.60;;;;;;4962468;28;20247;-66
2022/03/22 10:27:56;;;;;;;6.30;5.70;;;20.50;42.60;;;;;;4962685;28;20350;-65
2022/03/22 10:30:22;;;;;;;6.43;5.82;;;20.50;42.60;;;;;;4962733;28;20240;-66
2022/03/22 10:32:53;;;;;;;6.80;6.10;;;20.50;42.40;;;;;;4974678;28;20199;-65
2022/03/22 10:35:26;;;;;;;7.45;6.18;;;20.50;42.40;;;;;;4996263;28;20172;-66
2022/03/22 10:38:08;;;;;;;7.70;6.97;;;20.50;42.50;;;;;;4994722;28;20177;-66
2022/03/22 10:40:41;;;;;;;11.15;9.20;;;20.50;42.60;;;;;;4994608;28;20180;-66
2022/03/22 10:43:10;;;;;;;20.77;16.02;;;20.50;42.80;;;;;;4976904;28;20182;-66
2022/03/22 10:46:00;;;;;;;26.13;19.27;;;20.50;42.80;;;;;;4958698;28;20236;-65
2022/03/22 10:48:36;;;;;;;27.83;20.92;;;20.50;43.00;;;;;;4942809;28;20217;-65
2022/03/22 10:51:03;;;;;;;28.05;22.65;;;20.50;42.80;;;;;;4960539;28;20257;-66
2022/03/22 10:53:32;;;;;;;27.13;21.13;;;20.50;42.80;;;;;;4995239;28;20181;-67
2022/03/22 10:55:59;;;;;;;28.45;22.52;;;20.50;42.90;;;;;;4994219;28;20200;-66
2022/03/22 10:58:28;;;;;;;34.78;26.35;;;20.50;42.70;;;;;;4978171;28;20183;-66
2022/03/22 11:00:56;;;;;;;43.55;32.10;;;20.50;42.80;;;;;;4994248;28;20568;-66
2022/03/22 11:03:25;;;;;;;36.88;28.13;;;20.50;43.30;;;;;;4960449;28;20240;-66
2022/03/22 11:05:54;;;;;;;34.10;26.00;;;20.50;42.80;;;;;;4977704;28;20235;-66
2022/03/22 11:08:27;;;;;;;36.83;27.35;;;20.50;42.70;;;;;;4977679;28;20599;-65
2022/03/22 11:10:54;;;;;;;38.15;28.67;;;20.50;42.60;;;;;;4977761;28;20181;-67
2022/03/22 11:13:22;;;;;;;43.38;30.05;;;20.50;42.50;;;;;;4977725;28;20220;-67
2022/03/22 11:15:50;;;;;;;44.53;31.58;;;20.50;42.60;;;;;;4994084;28;20689;-67
2022/03/22 11:18:18;;;;;;;41.72;30.35;;;20.50;42.70;;;;;;4977944;28;20204;-67
2022/03/22 11:21:00;;;;;;;42.30;29.83;;;20.50;42.50;;;;;;4993644;28;20209;-67
2022/03/22 11:23:31;;;;;;;36.92;29.75;;;20.50;42.60;;;;;;4993777;28;20205;-67
2022/03/22 11:26:16;;;;;;;43.72;32.03;;;20.50;42.40;;;;;;4993938;28;20217;-67
2022/03/22 11:28:42;;;;;;;42.28;31.85;;;20.50;42.70;;;;;;4993912;28;20205;-66
2022/03/22 11:31:09;;;;;;;43.70;31.77;;;20.50;42.60;;;;;;4993712;28;20176;-66
2022/03/22 11:36:49;;;;;;;42.47;30.80;;;20.50;42.50;;;;;;4937603;29;20217;-66
2022/03/22 11:39:18;;;;;;;41.53;30.98;;;20.50;42.60;;;;;;4953761;29;20175;-67
2022/03/22 11:44:36;;;;;;;40.22;30.17;;;20.50;42.40;;;;;;4993551;28;20250;-66
2022/03/22 11:47:11;;;;;;;39.08;31.63;;;20.50;42.40;;;;;;4976986;28;20207;-67
2022/03/22 11:49:57;;;;;;;35.92;28.75;;;20.50;42.20;;;;;;4993279;28;20184;-68
2022/03/22 11:52:33;;;;;;;39.85;30.00;;;20.50;42.00;;;;;;4994077;28;20196;-67
2022/03/22 11:55:19;;;;;;;38.15;27.95;;;20.50;42.00;;;;;;4976827;28;20184;-68
2022/03/22 11:57:49;;;;;;;37.38;27.77;;;20.50;42.00;;;;;;4960955;28;20588;-67
2022/03/22 12:00:21;;;;;;;36.63;28.30;;;20.50;41.90;;;;;;4960626;28;20279;-68
2022/03/22 12:02:53;;;;;;;32.97;26.70;;;20.60;42.10;;;;;;4980160;28;20196;-67
2022/03/22 12:05:24;;;;;;;34.03;26.30;;;20.60;41.80;;;;;;4959476;28;20193;-67
2022/03/22 12:07:51;;;;;;;36.40;27.45;;;20.50;41.60;;;;;;4956109;28;20212;-67
2022/03/22 12:10:21;;;;;;;36.75;26.02;;;20.50;41.60;;;;;;4958089;28;20184;-67
2022/03/22 12:12:53;;;;;;;36.55;26.83;;;20.50;41.40;;;;;;4986168;28;20189;-67
2022/03/22 12:15:21;;;;;;;33.95;25.10;;;20.50;41.40;;;;;;4990525;28;20181;-67
2022/03/22 12:17:48;;;;;;;32.80;25.77;;;20.50;41.60;;;;;;4990905;28;20279;-67
2022/03/22 12:20:17;;;;;;;34.55;24.88;;;20.60;41.50;;;;;;4991673;28;20184;-67
2022/03/22 12:22:47;;;;;;;32.88;25.15;;;20.50;41.40;;;;;;5030398;22;20231;-69
2022/03/22 12:25:17;;;;;;;30.00;24.42;;;20.50;41.50;;;;;;4993441;28;20187;-69
2022/03/22 12:28:10;;;;;;;36.42;24.50;;;20.50;41.10;;;;;;4994772;28;20266;-69
2022/03/22 12:30:39;;;;;;;32.10;22.80;;;20.50;41.40;;;;;;4979820;28;20230;-69
2022/03/22 12:33:13;;;;;;;32.85;24.25;;;20.50;41.40;;;;;;4981613;28;20251;-69
2022/03/22 12:35:42;;;;;;;26.60;20.83;;;20.50;41.40;;;;;;4984814;28;20238;-70
2022/03/22 12:38:08;;;;;;;28.95;22.60;;;20.60;41.40;;;;;;4995582;28;20188;-70
2022/03/22 12:40:36;;;;;;;29.77;21.70;;;20.50;41.30;;;;;;4995698;28;20211;-69
2022/03/22 12:43:03;;;;;;;27.08;21.48;;;20.60;41.40;;;;;;4988700;28;20206;-70
2022/03/22 12:45:33;;;;;;;29.02;22.33;;;20.60;41.40;;;;;;4995326;28;20271;-70
2022/03/22 12:48:01;;;;;;;27.50;21.45;;;20.60;41.20;;;;;;5012718;28;20215;-70
2022/03/22 12:50:28;;;;;;;25.17;20.85;;;20.60;41.30;;;;;;4994825;28;20270;-69
2022/03/22 12:52:55;;;;;;;24.60;19.98;;;20.60;41.10;;;;;;5007988;28;20281;-69
2022/03/22 12:55:22;;;;;;;25.00;19.38;;;20.60;41.20;;;;;;4995207;28;20192;-70
2022/03/22 12:57:51;;;;;;;26.45;19.52;;;20.60;41.30;;;;;;4995207;28;20303;-70
2022/03/22 13:00:33;;;;;;;22.48;19.08;;;20.60;41.00;;;;;;4978890;28;20271;-69
2022/03/22 13:03:19;;;;;;;24.40;20.02;;;20.50;40.90;;;;;;4992322;28;20243;-70
2022/03/22 13:05:47;;;;;;;24.08;19.95;;;20.60;40.90;;;;;;4977509;28;20193;-69
2022/03/22 13:08:21;;;;;;;22.25;18.70;;;20.60;41.10;;;;;;5012913;28;20211;-69
2022/03/22 13:16:28;;;;;;;23.42;17.35;;;20.60;41.00;;;;;;5029321;28;20221;-70
2022/03/22 13:18:58;;;;;;;20.02;16.90;;;20.60;41.10;;;;;;5009730;28;20183;-69
2022/03/22 13:21:34;;;;;;;19.35;16.83;;;20.60;41.10;;;;;;4979600;28;20263;-70
2022/03/22 13:24:17;;;;;;;22.60;17.55;;;20.60;41.10;;;;;;5011304;28;20279;-69